sensor_id;sensor_type;location;lat;lon;timestamp;pressure;altitude;pressure_sealevel;temperature;humidity
74065;BME280;62421;51.412;5.432;2023-04-29T00:01:01;101337.25;;;9.60;100.00
74065;BME280;62421;51.412;5.432;2023-04-29T00:03:27;101337.19;;;9.62;100.00
74065;BME280;62421;51.412;5.432;2023-04-29T00:05:56;101337.34;;;9.59;100.00
74065;BME280;62421;51.412;5.432;2023-04-29T00:08:21;101336.31;;;9.61;100.00
74065;BME280;62421;51.412;5.432;2023-04-29T00:10:46;101343.47;;;9.61;100.00
74065;BME280;62421;51.412;5.432;2023-04-29T00:13:12;101335.63;;;9.58;100.00
74065;BME280;62421;51.412;5.432;2023-04-29T00:15:37;101335.19;;;9.50;100.00
74065;BME280;62421;51.412;5.432;2023-04-29T00:18:04;101347.03;;;9.46;100.00
74065;BME280;62421;51.412;5.432;2023-04-29T00:20:29;101338.22;;;9.43;100.00
74065;BME280;62421;51.412;5.432;2023-04-29T00:22:54;101347.03;;;9.46;100.00
74065;BME280;62421;51.412;5.432;2023-04-29T00:25:20;101354.81;;;9.50;100.00
74065;BME280;62421;51.412;5.432;2023-04-29T00:27:45;101343.66;;;9.42;100.00
74065;BME280;62421;51.412;5.432;2023-04-29T00:30:10;101358.91;;;9.41;100.00
74065;BME280;62421;51.412;5.432;2023-04-29T00:32:36;101365.03;;;9.43;100.00
74065;BME280;62421;51.412;5.432;2023-04-29T00:35:01;101369.81;;;9.38;100.00
74065;BME280;62421;51.412;5.432;2023-04-29T00:37:27;101370.84;;;9.36;100.00
74065;BME280;62421;51.412;5.432;2023-04-29T00:39:52;101367.09;;;9.22;100.00
74065;BME280;62421;51.412;5.432;2023-04-29T00:42:18;101371.00;;;9.17;100.00
74065;BME280;62421;51.412;5.432;2023-04-29T00:44:43;101367.81;;;9.10;100.00
74065;BME280;62421;51.412;5.432;2023-04-29T00:47:09;101356.22;;;9.10;100.00
74065;BME280;62421;51.412;5.432;2023-04-29T00:49:37;101370.56;;;9.09;100.00
74065;BME280;62421;51.412;5.432;2023-04-29T00:52:03;101375.47;;;9.00;100.00
74065;BME280;62421;51.412;5.432;2023-04-29T00:54:29;101372.09;;;8.97;100.00
74065;BME280;62421;51.412;5.432;2023-04-29T00:56:55;101370.56;;;8.93;100.00
74065;BME280;62421;51.412;5.432;2023-04-29T00:59:21;101381.59;;;8.87;100.00
74065;BME280;62421;51.412;5.432;2023-04-29T01:01:46;101378.81;;;8.88;100.00
74065;BME280;62421;51.412;5.432;2023-04-29T01:04:12;101385.06;;;8.89;100.00
74065;BME280;62421;51.412;5.432;2023-04-29T01:09:42;101381.94;;;8.80;100.00
74065;BME280;62421;51.412;5.432;2023-04-29T01:12:25;101388.16;;;8.81;100.00
74065;BME280;62421;51.412;5.432;2023-04-29T01:15:20;101394.47;;;8.96;100.00
74065;BME280;62421;51.412;5.432;2023-04-29T01:17:59;101394.25;;;8.67;100.00
74065;BME280;62421;51.412;5.432;2023-04-29T01:20:25;101398.13;;;8.61;100.00
74065;BME280;62421;51.412;5.432;2023-04-29T01:22:51;101397.25;;;8.61;100.00
74065;BME280;62421;51.412;5.432;2023-04-29T01:25:17;101401.50;;;8.65;100.00
74065;BME280;62421;51.412;5.432;2023-04-29T01:28:06;101411.31;;;8.65;100.00
74065;BME280;62421;51.412;5.432;2023-04-29T01:30:44;101402.28;;;8.67;100.00
74065;BME280;62421;51.412;5.432;2023-04-29T01:41:50;101414.41;;;8.57;100.00
74065;BME280;62421;51.412;5.432;2023-04-29T01:44:22;101413.72;;;8.53;100.00
74065;BME280;62421;51.412;5.432;2023-04-29T01:46:51;101416.56;;;8.50;100.00
74065;BME280;62421;51.412;5.432;2023-04-29T01:49:26;101416.88;;;8.44;100.00
74065;BME280;62421;51.412;5.432;2023-04-29T01:51:52;101418.59;;;8.45;100.00
74065;BME280;62421;51.412;5.432;2023-04-29T01:54:18;101422.16;;;8.46;100.00
74065;BME280;62421;51.412;5.432;2023-04-29T01:56:43;101416.63;;;8.49;100.00
74065;BME280;62421;51.412;5.432;2023-04-29T01:59:09;101418.44;;;8.48;100.00
74065;BME280;62421;51.412;5.432;2023-04-29T02:01:35;101417.66;;;8.46;100.00
74065;BME280;62421;51.412;5.432;2023-04-29T02:04:00;101425.84;;;8.43;100.00
74065;BME280;62421;51.412;5.432;2023-04-29T02:06:25;101423.94;;;8.45;100.00
74065;BME280;62421;51.412;5.432;2023-04-29T02:08:52;101420.47;;;8.43;100.00
74065;BME280;62421;51.412;5.432;2023-04-29T02:11:17;101427.84;;;8.38;100.00
74065;BME280;62421;51.412;5.432;2023-04-29T02:13:42;101434.81;;;8.42;100.00
74065;BME280;62421;51.412;5.432;2023-04-29T02:16:12;101424.13;;;8.42;100.00
74065;BME280;62421;51.412;5.432;2023-04-29T02:18:38;101441.25;;;8.38;100.00
74065;BME280;62421;51.412;5.432;2023-04-29T02:21:04;101435.78;;;8.41;100.00
74065;BME280;62421;51.412;5.432;2023-04-29T02:23:30;101434.88;;;8.40;100.00
74065;BME280;62421;51.412;5.432;2023-04-29T02:25:55;101444.88;;;8.37;100.00
74065;BME280;62421;51.412;5.432;2023-04-29T02:28:21;101447.44;;;8.38;100.00
74065;BME280;62421;51.412;5.432;2023-04-29T02:30:48;101448.28;;;8.40;100.00
74065;BME280;62421;51.412;5.432;2023-04-29T02:33:13;101451.84;;;8.41;100.00
74065;BME280;62421;51.412;5.432;2023-04-29T02:35:39;101447.44;;;8.38;100.00
74065;BME280;62421;51.412;5.432;2023-04-29T02:38:04;101454.41;;;8.43;100.00
74065;BME280;62421;51.412;5.432;2023-04-29T02:40:30;101453.38;;;8.45;100.00
74065;BME280;62421;51.412;5.432;2023-04-29T02:42:55;101461.41;;;8.45;100.00
74065;BME280;62421;51.412;5.432;2023-04-29T02:45:21;101465.91;;;8.45;100.00
74065;BME280;62421;51.412;5.432;2023-04-29T02:47:46;101472.22;;;8.44;100.00
74065;BME280;62421;51.412;5.432;2023-04-29T02:50:12;101473.06;;;8.44;100.00
74065;BME280;62421;51.412;5.432;2023-04-29T02:52:37;101477.47;;;8.45;100.00
74065;BME280;62421;51.412;5.432;2023-04-29T02:55:03;101487.06;;;8.49;100.00
74065;BME280;62421;51.412;5.432;2023-04-29T02:57:29;101475.81;;;8.43;100.00
74065;BME280;62421;51.412;5.432;2023-04-29T02:59:54;101475.03;;;8.40;100.00
74065;BME280;62421;51.412;5.432;2023-04-29T03:02:20;101478.88;;;8.35;100.00
74065;BME280;62421;51.412;5.432;2023-04-29T03:04:45;101488.13;;;8.28;100.00
74065;BME280;62421;51.412;5.432;2023-04-29T03:07:11;101481.13;;;8.25;100.00
74065;BME280;62421;51.412;5.432;2023-04-29T03:09:36;101493.72;;;8.23;100.00
74065;BME280;62421;51.412;5.432;2023-04-29T03:12:02;101492.00;;;8.22;100.00
74065;BME280;62421;51.412;5.432;2023-04-29T03:14:27;101487.88;;;8.15;100.00
74065;BME280;62421;51.412;5.432;2023-04-29T03:16:53;101482.63;;;8.13;100.00
74065;BME280;62421;51.412;5.432;2023-04-29T03:19:20;101489.75;;;8.13;100.00
74065;BME280;62421;51.412;5.432;2023-04-29T03:21:45;101496.78;;;8.15;100.00
74065;BME280;62421;51.412;5.432;2023-04-29T03:24:11;101500.63;;;8.10;100.00
74065;BME280;62421;51.412;5.432;2023-04-29T03:26:36;101498.19;;;8.05;100.00
74065;BME280;62421;51.412;5.432;2023-04-29T03:29:01;101501.72;;;8.06;100.00
74065;BME280;62421;51.412;5.432;2023-04-29T03:31:27;101495.50;;;8.05;100.00
74065;BME280;62421;51.412;5.432;2023-04-29T03:33:52;101501.00;;;8.02;100.00
74065;BME280;62421;51.412;5.432;2023-04-29T03:36:18;101509.97;;;8.01;100.00
74065;BME280;62421;51.412;5.432;2023-04-29T03:38:43;101507.47;;;7.98;100.00
74065;BME280;62421;51.412;5.432;2023-04-29T03:41:09;101506.84;;;7.91;100.00
74065;BME280;62421;51.412;5.432;2023-04-29T03:43:34;101499.84;;;7.89;100.00
74065;BME280;62421;51.412;5.432;2023-04-29T03:46:00;101516.63;;;7.92;100.00
74065;BME280;62421;51.412;5.432;2023-04-29T03:48:25;101510.31;;;7.93;100.00
74065;BME280;62421;51.412;5.432;2023-04-29T03:50:50;101510.50;;;7.90;100.00
74065;BME280;62421;51.412;5.432;2023-04-29T03:53:16;101508.84;;;7.88;100.00
74065;BME280;62421;51.412;5.432;2023-04-29T03:55:41;101513.53;;;7.83;100.00
74065;BME280;62421;51.412;5.432;2023-04-29T03:58:07;101517.22;;;7.80;100.00
74065;BME280;62421;51.412;5.432;2023-04-29T04:00:32;101517.28;;;7.78;100.00
74065;BME280;62421;51.412;5.432;2023-04-29T04:02:58;101519.16;;;7.76;100.00
74065;BME280;62421;51.412;5.432;2023-04-29T04:05:24;101518.22;;;7.77;100.00
74065;BME280;62421;51.412;5.432;2023-04-29T04:07:52;101522.94;;;7.72;100.00
74065;BME280;62421;51.412;5.432;2023-04-29T04:10:18;101531.09;;;7.69;100.00
74065;BME280;62421;51.412;5.432;2023-04-29T04:12:44;101525.69;;;7.71;100.00
74065;BME280;62421;51.412;5.432;2023-04-29T04:15:11;101531.94;;;7.70;100.00
74065;BME280;62421;51.412;5.432;2023-04-29T04:17:36;101543.44;;;7.72;100.00
74065;BME280;62421;51.412;5.432;2023-04-29T04:20:02;101536.38;;;7.71;100.00
74065;BME280;62421;51.412;5.432;2023-04-29T04:22:27;101539.03;;;7.71;100.00
74065;BME280;62421;51.412;5.432;2023-04-29T04:24:56;101554.13;;;7.72;100.00
74065;BME280;62421;51.412;5.432;2023-04-29T04:27:21;101553.22;;;7.73;100.00
74065;BME280;62421;51.412;5.432;2023-04-29T04:29:47;101547.69;;;7.76;100.00
74065;BME280;62421;51.412;5.432;2023-04-29T04:32:13;101554.81;;;7.77;100.00
74065;BME280;62421;51.412;5.432;2023-04-29T04:34:38;101555.59;;;7.79;100.00
74065;BME280;62421;51.412;5.432;2023-04-29T04:37:04;101565.22;;;7.83;100.00
74065;BME280;62421;51.412;5.432;2023-04-29T04:39:30;101555.50;;;7.80;100.00
74065;BME280;62421;51.412;5.432;2023-04-29T04:41:55;101558.97;;;7.83;100.00
74065;BME280;62421;51.412;5.432;2023-04-29T04:44:21;101573.22;;;7.83;100.00
74065;BME280;62421;51.412;5.432;2023-04-29T04:46:46;101565.22;;;7.83;100.00
74065;BME280;62421;51.412;5.432;2023-04-29T04:49:11;101570.63;;;7.82;100.00
74065;BME280;62421;51.412;5.432;2023-04-29T04:51:37;101579.56;;;7.80;100.00
74065;BME280;62421;51.412;5.432;2023-04-29T04:54:02;101583.13;;;7.81;100.00
74065;BME280;62421;51.412;5.432;2023-04-29T04:56:28;101590.25;;;7.80;100.00
74065;BME280;62421;51.412;5.432;2023-04-29T04:58:53;101593.66;;;7.84;100.00
74065;BME280;62421;51.412;5.432;2023-04-29T05:01:18;101598.00;;;7.87;100.00
74065;BME280;62421;51.412;5.432;2023-04-29T05:03:44;101602.44;;;7.88;100.00
74065;BME280;62421;51.412;5.432;2023-04-29T05:06:09;101610.44;;;7.88;100.00
74065;BME280;62421;51.412;5.432;2023-04-29T05:08:34;101609.59;;;7.87;100.00
74065;BME280;62421;51.412;5.432;2023-04-29T05:11:00;101610.50;;;7.86;100.00
74065;BME280;62421;51.412;5.432;2023-04-29T05:13:25;101609.44;;;7.90;100.00
74065;BME280;62421;51.412;5.432;2023-04-29T05:15:51;101608.47;;;7.91;100.00
74065;BME280;62421;51.412;5.432;2023-04-29T05:18:17;101608.34;;;7.94;100.00
74065;BME280;62421;51.412;5.432;2023-04-29T05:20:42;101605.53;;;7.97;100.00
74065;BME280;62421;51.412;5.432;2023-04-29T05:23:08;101618.78;;;8.00;100.00
74065;BME280;62421;51.412;5.432;2023-04-29T05:25:34;101608.13;;;7.99;100.00
74065;BME280;62421;51.412;5.432;2023-04-29T05:28:01;101626.63;;;8.04;100.00
74065;BME280;62421;51.412;5.432;2023-04-29T05:30:26;101625.56;;;8.08;100.00
74065;BME280;62421;51.412;5.432;2023-04-29T05:32:52;101626.28;;;8.11;100.00
74065;BME280;62421;51.412;5.432;2023-04-29T05:35:17;101621.00;;;8.10;100.00
74065;BME280;62421;51.412;5.432;2023-04-29T05:37:42;101625.50;;;8.09;100.00
74065;BME280;62421;51.412;5.432;2023-04-29T05:40:08;101624.63;;;8.09;100.00
74065;BME280;62421;51.412;5.432;2023-04-29T05:42:34;101629.03;;;8.10;100.00
74065;BME280;62421;51.412;5.432;2023-04-29T05:44:59;101629.75;;;8.13;100.00
74065;BME280;62421;51.412;5.432;2023-04-29T05:47:25;101635.97;;;8.14;100.00
74065;BME280;62421;51.412;5.432;2023-04-29T05:49:50;101644.13;;;8.11;100.00
74065;BME280;62421;51.412;5.432;2023-04-29T05:52:16;101646.94;;;8.08;100.00
74065;BME280;62421;51.412;5.432;2023-04-29T05:54:41;101654.25;;;8.04;100.00
74065;BME280;62421;51.412;5.432;2023-04-29T05:57:06;101659.81;;;7.99;100.00
74065;BME280;62421;51.412;5.432;2023-04-29T05:59:32;101662.63;;;7.96;100.00
74065;BME280;62421;51.412;5.432;2023-04-29T06:01:58;101657.34;;;7.95;100.00
74065;BME280;62421;51.412;5.432;2023-04-29T06:04:24;101665.16;;;7.99;100.00
74065;BME280;62421;51.412;5.432;2023-04-29T06:06:51;101668.91;;;7.95;100.00
74065;BME280;62421;51.412;5.432;2023-04-29T06:09:18;101672.25;;;8.00;100.00
74065;BME280;62421;51.412;5.432;2023-04-29T06:11:45;101678.31;;;8.04;100.00
74065;BME280;62421;51.412;5.432;2023-04-29T06:14:10;101672.84;;;8.07;100.00
74065;BME280;62421;51.412;5.432;2023-04-29T06:16:36;101675.31;;;8.12;100.00
74065;BME280;62421;51.412;5.432;2023-04-29T06:19:01;101680.44;;;8.16;100.00
74065;BME280;62421;51.412;5.432;2023-04-29T06:21:26;101687.09;;;8.27;100.00
74065;BME280;62421;51.412;5.432;2023-04-29T06:23:52;101687.59;;;8.35;100.00
74065;BME280;62421;51.412;5.432;2023-04-29T06:26:18;101695.41;;;8.39;100.00
74065;BME280;62421;51.412;5.432;2023-04-29T06:28:45;101691.88;;;8.39;100.00
74065;BME280;62421;51.412;5.432;2023-04-29T06:31:11;101693.47;;;8.43;100.00
74065;BME280;62421;51.412;5.432;2023-04-29T06:33:36;101689.13;;;8.40;100.00
74065;BME280;62421;51.412;5.432;2023-04-29T06:36:02;101695.06;;;8.47;100.00
74065;BME280;62421;51.412;5.432;2023-04-29T06:38:28;101703.66;;;8.54;100.00
74065;BME280;62421;51.412;5.432;2023-04-29T06:40:54;101699.09;;;8.56;100.00
74065;BME280;62421;51.412;5.432;2023-04-29T06:43:19;101713.50;;;8.53;100.00
74065;BME280;62421;51.412;5.432;2023-04-29T06:45:45;101709.19;;;8.51;100.00
74065;BME280;62421;51.412;5.432;2023-04-29T06:48:11;101720.84;;;8.50;100.00
74065;BME280;62421;51.412;5.432;2023-04-29T06:50:36;101715.50;;;8.50;100.00
74065;BME280;62421;51.412;5.432;2023-04-29T06:53:02;101720.84;;;8.50;100.00
74065;BME280;62421;51.412;5.432;2023-04-29T06:55:27;101732.25;;;8.53;100.00
74065;BME280;62421;51.412;5.432;2023-04-29T06:57:52;101727.69;;;8.55;100.00
74065;BME280;62421;51.412;5.432;2023-04-29T07:00:18;101740.44;;;8.50;100.00
74065;BME280;62421;51.412;5.432;2023-04-29T07:02:45;101744.78;;;8.53;100.00
74065;BME280;62421;51.412;5.432;2023-04-29T07:05:10;101732.19;;;8.55;100.00
74065;BME280;62421;51.412;5.432;2023-04-29T07:07:36;101748.09;;;8.58;100.00
74065;BME280;62421;51.412;5.432;2023-04-29T07:10:01;101754.19;;;8.61;100.00
74065;BME280;62421;51.412;5.432;2023-04-29T07:12:27;101753.09;;;8.66;100.00
74065;BME280;62421;51.412;5.432;2023-04-29T07:14:52;101751.84;;;8.73;100.00
74065;BME280;62421;51.412;5.432;2023-04-29T07:17:17;101759.38;;;8.84;100.00
74065;BME280;62421;51.412;5.432;2023-04-29T07:19:43;101749.78;;;8.97;100.00
74065;BME280;62421;51.412;5.432;2023-04-29T07:22:08;101751.81;;;9.11;100.00
74065;BME280;62421;51.412;5.432;2023-04-29T07:24:34;101753.72;;;9.26;100.00
74065;BME280;62421;51.412;5.432;2023-04-29T07:26:59;101757.28;;;9.44;100.00
74065;BME280;62421;51.412;5.432;2023-04-29T07:29:24;101764.75;;;9.55;100.00
74065;BME280;62421;51.412;5.432;2023-04-29T07:31:50;101759.75;;;9.66;100.00
74065;BME280;62421;51.412;5.432;2023-04-29T07:34:15;101763.75;;;9.75;100.00
74065;BME280;62421;51.412;5.432;2023-04-29T07:36:40;101761.75;;;9.78;100.00
74065;BME280;62421;51.412;5.432;2023-04-29T07:39:06;101776.50;;;9.87;100.00
74065;BME280;62421;51.412;5.432;2023-04-29T07:41:31;101772.81;;;9.90;100.00
74065;BME280;62421;51.412;5.432;2023-04-29T07:43:57;101783.63;;;9.88;100.00
74065;BME280;62421;51.412;5.432;2023-04-29T07:46:22;101796.06;;;9.89;100.00
74065;BME280;62421;51.412;5.432;2023-04-29T07:48:47;101780.09;;;9.88;100.00
74065;BME280;62421;51.412;5.432;2023-04-29T07:51:13;101790.03;;;9.86;100.00
74065;BME280;62421;51.412;5.432;2023-04-29T07:53:39;101794.44;;;9.87;100.00
74065;BME280;62421;51.412;5.432;2023-04-29T07:56:08;101796.06;;;9.89;100.00
74065;BME280;62421;51.412;5.432;2023-04-29T07:58:33;101797.97;;;9.87;100.00
74065;BME280;62421;51.412;5.432;2023-04-29T08:01:08;101802.22;;;9.91;100.00
74065;BME280;62421;51.412;5.432;2023-04-29T08:03:34;101784.56;;;10.04;100.00
74065;BME280;62421;51.412;5.432;2023-04-29T08:06:03;101802.94;;;10.12;100.00
74065;BME280;62421;51.412;5.432;2023-04-29T08:08:30;101797.25;;;10.18;100.00
74065;BME280;62421;51.412;5.432;2023-04-29T08:10:55;101802.06;;;10.12;100.00
74065;BME280;62421;51.412;5.432;2023-04-29T08:13:21;101805.31;;;10.01;100.00
74065;BME280;62421;51.412;5.432;2023-04-29T08:15:46;101800.19;;;9.96;100.00
74065;BME280;62421;51.412;5.432;2023-04-29T08:18:11;101806.34;;;9.98;100.00
74065;BME280;62421;51.412;5.432;2023-04-29T08:20:37;101801.53;;;10.05;100.00
74065;BME280;62421;51.412;5.432;2023-04-29T08:23:02;101796.53;;;10.15;100.00
74065;BME280;62421;51.412;5.432;2023-04-29T08:25:28;101802.41;;;10.39;100.00
74065;BME280;62421;51.412;5.432;2023-04-29T08:27:54;101802.59;;;10.69;100.00
74065;BME280;62421;51.412;5.432;2023-04-29T08:30:20;101806.38;;;10.97;100.00
74065;BME280;62421;51.412;5.432;2023-04-29T08:32:46;101811.50;;;11.17;100.00
74065;BME280;62421;51.412;5.432;2023-04-29T08:35:11;101810.34;;;11.37;99.70
74065;BME280;62421;51.412;5.432;2023-04-29T08:37:37;101808.53;;;11.38;96.71
74065;BME280;62421;51.412;5.432;2023-04-29T08:40:02;101816.19;;;11.30;97.50
74065;BME280;62421;51.412;5.432;2023-04-29T08:42:34;101815.56;;;11.40;96.28
74065;BME280;62421;51.412;5.432;2023-04-29T08:45:01;101815.13;;;11.48;95.47
74065;BME280;62421;51.412;5.432;2023-04-29T08:47:30;101818.50;;;11.52;95.14
74065;BME280;62421;51.412;5.432;2023-04-29T08:50:01;101817.44;;;11.54;94.52
74065;BME280;62421;51.412;5.432;2023-04-29T08:52:29;101819.78;;;11.60;94.70
74065;BME280;62421;51.412;5.432;2023-04-29T08:54:56;101817.59;;;11.67;94.69
74065;BME280;62421;51.412;5.432;2023-04-29T08:57:26;101821.63;;;11.74;92.40
74065;BME280;62421;51.412;5.432;2023-04-29T08:59:52;101816.38;;;11.87;94.34
74065;BME280;62421;51.412;5.432;2023-04-29T09:02:18;101819.72;;;11.92;91.79
74065;BME280;62421;51.412;5.432;2023-04-29T09:04:56;101825.72;;;11.81;92.74
74065;BME280;62421;51.412;5.432;2023-04-29T09:07:25;101823.69;;;11.85;91.50
74065;BME280;62421;51.412;5.432;2023-04-29T09:09:51;101828.03;;;11.87;90.08
74065;BME280;62421;51.412;5.432;2023-04-29T09:12:17;101831.56;;;11.90;87.34
74065;BME280;62421;51.412;5.432;2023-04-29T09:14:43;101828.56;;;11.78;87.99
74065;BME280;62421;51.412;5.432;2023-04-29T09:17:08;101833.69;;;11.83;87.73
74065;BME280;62421;51.412;5.432;2023-04-29T09:19:35;101835.31;;;12.01;89.29
74065;BME280;62421;51.412;5.432;2023-04-29T09:22:04;101837.91;;;12.17;87.12
74065;BME280;62421;51.412;5.432;2023-04-29T09:24:31;101830.06;;;12.28;83.88
74065;BME280;62421;51.412;5.432;2023-04-29T09:26:58;101826.69;;;12.54;85.67
74065;BME280;62421;51.412;5.432;2023-04-29T09:29:24;101837.78;;;12.78;84.17
74065;BME280;62421;51.412;5.432;2023-04-29T09:31:50;101824.34;;;13.05;82.89
74065;BME280;62421;51.412;5.432;2023-04-29T09:34:30;101829.06;;;13.01;82.98
74065;BME280;62421;51.412;5.432;2023-04-29T09:36:55;101836.13;;;12.75;80.48
74065;BME280;62421;51.412;5.432;2023-04-29T09:39:23;101840.47;;;12.63;83.17
74065;BME280;62421;51.412;5.432;2023-04-29T09:44:14;101848.06;;;12.85;82.51
74065;BME280;62421;51.412;5.432;2023-04-29T09:46:41;101841.13;;;12.96;81.35
74065;BME280;62421;51.412;5.432;2023-04-29T09:49:24;101841.91;;;13.25;82.12
74065;BME280;62421;51.412;5.432;2023-04-29T09:51:54;101847.56;;;13.49;77.21
74065;BME280;62421;51.412;5.432;2023-04-29T09:54:25;101845.72;;;13.49;78.31
74065;BME280;62421;51.412;5.432;2023-04-29T09:56:53;101842.53;;;13.30;77.27
74065;BME280;62421;51.412;5.432;2023-04-29T09:59:19;101853.69;;;13.09;77.84
74065;BME280;62421;51.412;5.432;2023-04-29T10:01:47;101848.44;;;12.94;79.19
74065;BME280;62421;51.412;5.432;2023-04-29T10:04:14;101851.22;;;12.92;78.52
74065;BME280;62421;51.412;5.432;2023-04-29T10:06:40;101854.97;;;13.04;75.43
74065;BME280;62421;51.412;5.432;2023-04-29T10:09:07;101855.22;;;13.28;75.58
74065;BME280;62421;51.412;5.432;2023-04-29T10:11:34;101861.16;;;13.47;73.52
74065;BME280;62421;51.412;5.432;2023-04-29T10:14:02;101860.44;;;13.58;73.95
74065;BME280;62421;51.412;5.432;2023-04-29T10:16:30;101857.03;;;13.69;74.93
74065;BME280;62421;51.412;5.432;2023-04-29T10:18:59;101854.13;;;13.85;73.49
74065;BME280;62421;51.412;5.432;2023-04-29T10:21:29;101854.28;;;13.83;71.22
74065;BME280;62421;51.412;5.432;2023-04-29T10:23:57;101856.84;;;13.85;72.92
74065;BME280;62421;51.412;5.432;2023-04-29T10:26:27;101853.81;;;13.89;72.35
74065;BME280;62421;51.412;5.432;2023-04-29T10:28:57;101859.13;;;13.91;72.26
74065;BME280;62421;51.412;5.432;2023-04-29T10:31:27;101851.88;;;13.91;72.02
74065;BME280;62421;51.412;5.432;2023-04-29T10:33:57;101860.44;;;13.85;72.28
74065;BME280;62421;51.412;5.432;2023-04-29T10:36:27;101858.19;;;13.92;72.41
74065;BME280;62421;51.412;5.432;2023-04-29T10:38:57;101856.97;;;13.83;71.70
74065;BME280;62421;51.412;5.432;2023-04-29T10:41:29;101866.91;;;13.96;72.88
74065;BME280;62421;51.412;5.432;2023-04-29T10:43:57;101856.88;;;13.98;73.80
74065;BME280;62421;51.412;5.432;2023-04-29T10:46:25;101861.91;;;13.89;71.06
74065;BME280;62421;51.412;5.432;2023-04-29T10:48:56;101862.16;;;13.59;68.61
74065;BME280;62421;51.412;5.432;2023-04-29T10:53:58;101872.97;;;13.32;73.46
74065;BME280;62421;51.412;5.432;2023-04-29T10:56:37;101866.09;;;13.26;73.95
74065;BME280;62421;51.412;5.432;2023-04-29T10:59:03;101866.41;;;13.36;72.04
74065;BME280;62421;51.412;5.432;2023-04-29T11:01:46;101869.63;;;13.56;72.88
74065;BME280;62421;51.412;5.432;2023-04-29T11:04:12;101869.66;;;13.68;72.80
74065;BME280;62421;51.412;5.432;2023-04-29T11:06:40;101873.81;;;13.87;68.85
74065;BME280;62421;51.412;5.432;2023-04-29T11:09:14;101873.31;;;14.07;70.62
74065;BME280;62421;51.412;5.432;2023-04-29T11:16:59;101882.06;;;14.11;69.65
74065;BME280;62421;51.412;5.432;2023-04-29T11:19:30;101883.47;;;14.04;70.90
74065;BME280;62421;51.412;5.432;2023-04-29T11:24:50;101877.63;;;13.97;70.28
74065;BME280;62421;51.412;5.432;2023-04-29T11:27:17;101874.59;;;14.02;69.49
74065;BME280;62421;51.412;5.432;2023-04-29T11:29:45;101878.91;;;14.04;69.16
74065;BME280;62421;51.412;5.432;2023-04-29T11:32:11;101875.16;;;14.07;68.75
74065;BME280;62421;51.412;5.432;2023-04-29T11:34:36;101876.41;;;13.88;67.58
74065;BME280;62421;51.412;5.432;2023-04-29T11:37:03;101878.97;;;13.77;71.84
74065;BME280;62421;51.412;5.432;2023-04-29T11:39:29;101876.50;;;13.87;68.83
74065;BME280;62421;51.412;5.432;2023-04-29T11:42:07;101886.22;;;13.89;69.33
74065;BME280;62421;51.412;5.432;2023-04-29T11:44:35;101878.69;;;13.95;69.08
74065;BME280;62421;51.412;5.432;2023-04-29T11:47:07;101883.25;;;13.94;69.08
74065;BME280;62421;51.412;5.432;2023-04-29T11:49:34;101887.66;;;13.95;68.19
74065;BME280;62421;51.412;5.432;2023-04-29T11:51:59;101881.31;;;13.96;67.93
74065;BME280;62421;51.412;5.432;2023-04-29T11:54:26;101883.13;;;13.96;69.74
74065;BME280;62421;51.412;5.432;2023-04-29T11:56:56;101892.19;;;13.95;67.52
74065;BME280;62421;51.412;5.432;2023-04-29T11:59:22;101895.97;;;13.92;67.81
74065;BME280;62421;51.412;5.432;2023-04-29T12:01:50;101886.56;;;13.98;69.60
74065;BME280;62421;51.412;5.432;2023-04-29T12:04:16;101888.78;;;14.05;69.49
74065;BME280;62421;51.412;5.432;2023-04-29T12:06:42;101895.13;;;14.04;68.82
74065;BME280;62421;51.412;5.432;2023-04-29T12:09:08;101893.13;;;14.21;68.90
74065;BME280;62421;51.412;5.432;2023-04-29T12:11:35;101886.97;;;14.31;68.19
74065;BME280;62421;51.412;5.432;2023-04-29T12:14:02;101883.41;;;14.44;69.58
74065;BME280;62421;51.412;5.432;2023-04-29T12:16:30;101887.22;;;14.54;66.83
74065;BME280;62421;51.412;5.432;2023-04-29T12:18:56;101883.31;;;14.58;67.50
74065;BME280;62421;51.412;5.432;2023-04-29T12:21:22;101887.88;;;14.70;67.78
74065;BME280;62421;51.412;5.432;2023-04-29T12:23:50;101885.16;;;14.96;68.39
74065;BME280;62421;51.412;5.432;2023-04-29T12:26:15;101877.69;;;15.36;65.55
74065;BME280;62421;51.412;5.432;2023-04-29T12:28:42;101883.22;;;15.59;62.29
74065;BME280;62421;51.412;5.432;2023-04-29T12:31:08;101884.56;;;15.53;62.61
74065;BME280;62421;51.412;5.432;2023-04-29T12:33:34;101880.59;;;15.70;63.13
74065;BME280;62421;51.412;5.432;2023-04-29T12:35:59;101886.97;;;15.69;60.31
74065;BME280;62421;51.412;5.432;2023-04-29T12:38:28;101886.09;;;15.69;61.89
74065;BME280;62421;51.412;5.432;2023-04-29T12:40:55;101887.38;;;15.52;60.02
74065;BME280;62421;51.412;5.432;2023-04-29T12:43:27;101890.28;;;15.62;63.10
74065;BME280;62421;51.412;5.432;2023-04-29T12:45:54;101884.97;;;15.84;61.86
74065;BME280;62421;51.412;5.432;2023-04-29T12:48:29;101891.50;;;15.82;59.97
74065;BME280;62421;51.412;5.432;2023-04-29T12:50:55;101885.13;;;15.70;60.94
74065;BME280;62421;51.412;5.432;2023-04-29T12:53:22;101890.66;;;15.68;60.23
74065;BME280;62421;51.412;5.432;2023-04-29T12:55:48;101886.22;;;15.67;60.22
74065;BME280;62421;51.412;5.432;2023-04-29T12:58:13;101891.22;;;15.73;62.41
74065;BME280;62421;51.412;5.432;2023-04-29T13:00:39;101886.53;;;15.75;57.86
74065;BME280;62421;51.412;5.432;2023-04-29T13:03:04;101888.72;;;15.70;57.97
74065;BME280;62421;51.412;5.432;2023-04-29T13:05:29;101885.53;;;15.76;59.52
74065;BME280;62421;51.412;5.432;2023-04-29T13:07:55;101885.69;;;16.10;62.88
74065;BME280;62421;51.412;5.432;2023-04-29T13:10:21;101886.25;;;16.27;58.08
74065;BME280;62421;51.412;5.432;2023-04-29T13:12:46;101884.25;;;16.17;58.19